Time;durP1;ratioP1;P1;durP2;ratioP2;P2;SDS_P1;SDS_P2;PMS_P1;PMS_P2;Temp;Humidity;BMP_temperature;BMP_pressure;BME280_temperature;BME280_humidity;BME280_pressure;Samples;Min_cycle;Max_cycle;Signal;HPM_P1;HPM_P2
2023/10/19 00:01:52;;;;;;;;;7.00;5.50;;;;;-128.00;-1.00;-1.00;106668;1257;1006499;-40
2023/10/19 00:04:21;;;;;;;;;6.00;5.00;;;;;-128.00;-1.00;-1.00;106725;1257;1002868;-39
2023/10/19 00:06:50;;;;;;;;;7.00;7.00;;;;;-128.00;-1.00;-1.00;106654;1257;1006710;-40
2023/10/19 00:09:19;;;;;;;;;6.00;6.00;;;;;-128.00;-1.00;-1.00;106566;1257;1006360;-39
2023/10/19 00:11:50;;;;;;;;;5.00;5.00;;;;;-128.00;-1.00;-1.00;106606;1257;1006480;-40
2023/10/19 00:14:18;;;;;;;;;6.00;5.00;;;;;-128.00;-1.00;-1.00;106579;1257;1007346;-40
2023/10/19 00:16:51;;;;;;;;;8.00;6.00;;;;;-128.00;-1.00;-1.00;106618;1250;1002508;-39
2023/10/19 00:19:19;;;;;;;;;5.50;4.50;;;;;-128.00;-1.00;-1.00;106629;1257;1006827;-39
2023/10/19 00:21:54;;;;;;;;;8.00;5.25;;;;;-128.00;-1.00;-1.00;106625;1250;1011914;-39
2023/10/19 00:24:23;;;;;;;;;4.00;4.00;;;;;-128.00;-1.00;-1.00;106682;1257;1006184;-40
2023/10/19 00:26:53;;;;;;;;;8.00;7.33;;;;;-128.00;-1.00;-1.00;106628;1257;1006484;-40
2023/10/19 00:29:32;;;;;;;;;5.00;4.00;;;;;-128.00;-1.00;-1.00;106585;1257;1007084;-39
2023/10/19 00:31:59;;;;;;;;;4.75;4.75;;;;;-128.00;-1.00;-1.00;106622;1251;1006296;-40
2023/10/19 00:34:28;;;;;;;;;5.00;5.00;;;;;-128.00;-1.00;-1.00;106613;1265;1002535;-39
2023/10/19 00:36:56;;;;;;;;;8.00;8.00;;;;;-128.00;-1.00;-1.00;106595;1257;1007696;-39
2023/10/19 00:39:24;;;;;;;;;5.00;5.00;;;;;-128.00;-1.00;-1.00;106631;1251;1003516;-39
2023/10/19 00:41:57;;;;;;;;;5.67;5.00;;;;;-128.00;-1.00;-1.00;106635;1257;1002756;-40
2023/10/19 00:44:35;;;;;;;;;5.00;4.00;;;;;-128.00;-1.00;-1.00;106619;1249;1007064;-39
2023/10/19 00:47:07;;;;;;;;;8.00;6.00;;;;;-128.00;-1.00;-1.00;106596;1257;1006048;-39
2023/10/19 00:49:34;;;;;;;;;5.67;5.67;;;;;-128.00;-1.00;-1.00;106647;1257;1006833;-39
2023/10/19 00:52:11;;;;;;;;;4.00;4.00;;;;;-128.00;-1.00;-1.00;106602;1265;1002439;-39
2023/10/19 00:54:40;;;;;;;;;5.00;5.00;;;;;-128.00;-1.00;-1.00;106631;1257;1006675;-39
2023/10/19 00:57:10;;;;;;;;;5.00;5.00;;;;;-128.00;-1.00;-1.00;106620;1257;1006035;-38
2023/10/19 00:59:42;;;;;;;;;4.50;4.50;;;;;-128.00;-1.00;-1.00;106600;1257;1006948;-39
2023/10/19 01:02:21;;;;;;;;;4.00;4.00;;;;;-128.00;-1.00;-1.00;106621;1257;1005966;-38
2023/10/19 01:04:55;;;;;;;;;8.00;6.00;;;;;-128.00;-1.00;-1.00;106582;1257;1006667;-38
2023/10/19 01:07:27;;;;;;;;;4.00;4.00;;;;;-128.00;-1.00;-1.00;106596;1257;1007563;-40
2023/10/19 01:09:56;;;;;;;;;5.33;5.33;;;;;-128.00;-1.00;-1.00;106550;1257;1006286;-38
2023/10/19 01:12:32;;;;;;;;;5.00;4.00;;;;;-128.00;-1.00;-1.00;106555;1257;1005892;-38
2023/10/19 01:15:00;;;;;;;;;4.00;4.00;;;;;-128.00;-1.00;-1.00;106597;1257;1007055;-38
2023/10/19 01:17:31;;;;;;;;;6.00;6.00;;;;;-128.00;-1.00;-1.00;106610;1251;1003354;-39
2023/10/19 01:19:59;;;;;;;;;5.00;5.00;;;;;-128.00;-1.00;-1.00;106579;1257;1006901;-39
2023/10/19 01:22:26;;;;;;;;;5.00;5.00;;;;;-128.00;-1.00;-1.00;106539;1257;1002664;-39
2023/10/19 01:24:55;;;;;;;;;5.00;5.00;;;;;-128.00;-1.00;-1.00;106635;1257;1002496;-40
2023/10/19 01:27:23;;;;;;;;;5.67;5.67;;;;;-128.00;-1.00;-1.00;106603;1250;1006881;-38
2023/10/19 01:29:59;;;;;;;;;5.33;5.00;;;;;-128.00;-1.00;-1.00;106636;1257;1002859;-38
2023/10/19 01:32:27;;;;;;;;;5.33;5.00;;;;;-128.00;-1.00;-1.00;106570;1257;1006398;-38
2023/10/19 01:34:54;;;;;;;;;6.50;5.25;;;;;-128.00;-1.00;-1.00;106556;1257;1002931;-38
2023/10/19 01:37:22;;;;;;;;;4.50;4.00;;;;;-128.00;-1.00;-1.00;106546;1257;1004931;-39
2023/10/19 01:39:49;;;;;;;;;5.00;5.00;;;;;-128.00;-1.00;-1.00;106571;1257;1002572;-39
2023/10/19 01:42:17;;;;;;;;;5.00;5.00;;;;;-128.00;-1.00;-1.00;106602;1257;1002731;-40
2023/10/19 01:44:44;;;;;;;;;6.67;6.00;;;;;-128.00;-1.00;-1.00;106606;1257;1007381;-39
2023/10/19 01:47:12;;;;;;;;;4.33;4.00;;;;;-128.00;-1.00;-1.00;106588;1257;1002380;-40
2023/10/19 01:49:39;;;;;;;;;4.00;4.00;;;;;-128.00;-1.00;-1.00;106547;1257;1002409;-38
2023/10/19 01:52:06;;;;;;;;;5.67;5.67;;;;;-128.00;-1.00;-1.00;106524;1257;1002457;-38
2023/10/19 01:54:37;;;;;;;;;5.00;5.00;;;;;-128.00;-1.00;-1.00;106562;1257;1002769;-38
2023/10/19 01:57:05;;;;;;;;;4.00;4.00;;;;;-128.00;-1.00;-1.00;106570;1257;1005875;-38
2023/10/19 01:59:34;;;;;;;;;4.00;4.00;;;;;-128.00;-1.00;-1.00;106562;1257;1002863;-39
2023/10/19 02:02:02;;;;;;;;;5.00;5.00;;;;;-128.00;-1.00;-1.00;106587;1257;1006888;-40
2023/10/19 02:04:30;;;;;;;;;6.67;6.00;;;;;-128.00;-1.00;-1.00;106605;1257;1002859;-38
2023/10/19 02:07:00;;;;;;;;;5.00;5.00;;;;;-128.00;-1.00;-1.00;106518;1250;1006376;-38
2023/10/19 02:09:29;;;;;;;;;4.00;4.00;;;;;-128.00;-1.00;-1.00;106501;1250;1006380;-38
2023/10/19 02:11:57;;;;;;;;;5.00;5.00;;;;;-128.00;-1.00;-1.00;106494;1257;1007457;-38
2023/10/19 02:14:24;;;;;;;;;4.00;4.00;;;;;-128.00;-1.00;-1.00;106593;1257;1002658;-39
2023/10/19 02:16:52;;;;;;;;;5.00;5.00;;;;;-128.00;-1.00;-1.00;106586;1257;1002490;-38
2023/10/19 02:19:20;;;;;;;;;4.00;4.00;;;;;-128.00;-1.00;-1.00;106560;1257;1002782;-38
2023/10/19 02:21:48;;;;;;;;;5.33;5.00;;;;;-128.00;-1.00;-1.00;106547;1257;1002492;-38
2023/10/19 02:24:15;;;;;;;;;5.00;5.00;;;;;-128.00;-1.00;-1.00;106557;1249;1003500;-38
2023/10/19 02:26:43;;;;;;;;;4.00;4.00;;;;;-128.00;-1.00;-1.00;106576;1260;1002903;-38
2023/10/19 02:29:10;;;;;;;;;4.75;4.75;;;;;-128.00;-1.00;-1.00;106621;1251;1002839;-38
2023/10/19 02:31:39;;;;;;;;;4.00;4.00;;;;;-128.00;-1.00;-1.00;106564;1265;1003713;-38
2023/10/19 02:34:07;;;;;;;;;4.00;4.00;;;;;-128.00;-1.00;-1.00;106529;1250;1010751;-38
2023/10/19 02:36:36;;;;;;;;;5.00;5.00;;;;;-128.00;-1.00;-1.00;106527;1249;1002605;-38
2023/10/19 02:39:07;;;;;;;;;5.00;5.00;;;;;-128.00;-1.00;-1.00;106511;1257;1006430;-39
2023/10/19 02:41:36;;;;;;;;;8.00;6.00;;;;;-128.00;-1.00;-1.00;106519;1251;1006895;-38
2023/10/19 02:44:07;;;;;;;;;6.00;5.00;;;;;-128.00;-1.00;-1.00;106544;1257;1006836;-38
2023/10/19 02:46:34;;;;;;;;;8.00;5.50;;;;;-128.00;-1.00;-1.00;106529;1250;1006296;-38
2023/10/19 02:49:04;;;;;;;;;5.00;5.00;;;;;-128.00;-1.00;-1.00;106568;1257;1006023;-38
2023/10/19 02:51:31;;;;;;;;;5.00;4.00;;;;;-128.00;-1.00;-1.00;106531;1251;1006954;-38
2023/10/19 02:54:02;;;;;;;;;5.00;5.00;;;;;-128.00;-1.00;-1.00;106551;1257;1003000;-38
2023/10/19 02:56:30;;;;;;;;;5.00;5.00;;;;;-128.00;-1.00;-1.00;106548;1257;1006625;-38
2023/10/19 02:59:03;;;;;;;;;5.00;5.00;;;;;-128.00;-1.00;-1.00;106537;1257;1002747;-38
2023/10/19 03:01:31;;;;;;;;;3.00;3.00;;;;;-128.00;-1.00;-1.00;106551;1257;1006001;-38
2023/10/19 03:03:59;;;;;;;;;5.50;5.00;;;;;-128.00;-1.00;-1.00;106543;1257;1006673;-38
2023/10/19 03:06:31;;;;;;;;;4.00;4.00;;;;;-128.00;-1.00;-1.00;106527;1257;1006978;-38
2023/10/19 03:09:00;;;;;;;;;5.00;5.00;;;;;-128.00;-1.00;-1.00;106547;1257;1005929;-38
2023/10/19 03:11:28;;;;;;;;;4.00;4.00;;;;;-128.00;-1.00;-1.00;106577;1257;1006110;-38
2023/10/19 03:13:57;;;;;;;;;6.00;6.00;;;;;-128.00;-1.00;-1.00;106570;1250;1003161;-38
2023/10/19 03:16:24;;;;;;;;;6.00;5.00;;;;;-128.00;-1.00;-1.00;106547;1257;1005684;-38
2023/10/19 03:18:51;;;;;;;;;5.50;5.00;;;;;-128.00;-1.00;-1.00;106598;1257;1002805;-38
2023/10/19 03:21:26;;;;;;;;;5.00;5.00;;;;;-128.00;-1.00;-1.00;106610;1257;1003276;-38
2023/10/19 03:23:54;;;;;;;;;5.50;4.00;;;;;-128.00;-1.00;-1.00;106631;1257;1005900;-38
2023/10/19 03:26:27;;;;;;;;;8.00;6.00;;;;;-128.00;-1.00;-1.00;106585;1257;1002948;-38
2023/10/19 03:28:56;;;;;;;;;5.67;5.00;;;;;-128.00;-1.00;-1.00;106612;1257;1007054;-39
2023/10/19 03:31:24;;;;;;;;;6.00;5.00;;;;;-128.00;-1.00;-1.00;106599;1257;1005731;-38
2023/10/19 03:33:54;;;;;;;;;4.50;4.50;;;;;-128.00;-1.00;-1.00;106605;1257;1006025;-38
2023/10/19 03:36:22;;;;;;;;;5.00;5.00;;;;;-128.00;-1.00;-1.00;106607;1257;1006607;-38
2023/10/19 03:38:51;;;;;;;;;8.00;8.00;;;;;-128.00;-1.00;-1.00;106639;1257;1003363;-40
2023/10/19 03:41:21;;;;;;;;;4.00;4.00;;;;;-128.00;-1.00;-1.00;106578;1257;1006454;-39
2023/10/19 03:43:48;;;;;;;;;4.50;4.50;;;;;-128.00;-1.00;-1.00;106699;1257;1007408;-39
2023/10/19 03:46:22;;;;;;;;;5.00;4.33;;;;;-128.00;-1.00;-1.00;106691;1257;1002923;-38
2023/10/19 03:48:50;;;;;;;;;5.00;5.00;;;;;-128.00;-1.00;-1.00;106613;1257;1006343;-38
2023/10/19 03:51:17;;;;;;;;;5.00;5.00;;;;;-128.00;-1.00;-1.00;106616;1257;1002749;-39
2023/10/19 03:53:53;;;;;;;;;10.00;8.00;;;;;-128.00;-1.00;-1.00;106652;1257;1002668;-38
2023/10/19 03:56:21;;;;;;;;;6.00;6.00;;;;;-128.00;-1.00;-1.00;106638;1257;1006205;-39
2023/10/19 03:58:50;;;;;;;;;8.00;6.00;;;;;-128.00;-1.00;-1.00;106638;1257;1006396;-38
2023/10/19 04:01:19;;;;;;;;;6.00;5.50;;;;;-128.00;-1.00;-1.00;106620;1249;1006620;-39
2023/10/19 04:03:47;;;;;;;;;8.00;6.00;;;;;-128.00;-1.00;-1.00;106643;1257;1006399;-39
2023/10/19 04:06:14;;;;;;;;;5.00;5.00;;;;;-128.00;-1.00;-1.00;106592;1257;1002514;-39
2023/10/19 04:08:45;;;;;;;;;5.00;5.00;;;;;-128.00;-1.00;-1.00;106586;1257;1003085;-38
2023/10/19 04:11:22;;;;;;;;;6.00;6.00;;;;;-128.00;-1.00;-1.00;106629;1257;1006402;-39
2023/10/19 04:13:52;;;;;;;;;8.25;7.50;;;;;-128.00;-1.00;-1.00;106625;1257;1007584;-39
2023/10/19 04:16:20;;;;;;;;;6.67;6.67;;;;;-128.00;-1.00;-1.00;106672;1257;1006514;-39
2023/10/19 04:18:48;;;;;;;;;8.00;6.00;;;;;-128.00;-1.00;-1.00;106555;1257;1003278;-39
2023/10/19 04:21:15;;;;;;;;;6.00;6.00;;;;;-128.00;-1.00;-1.00;106614;1257;1003308;-39
2023/10/19 04:23:43;;;;;;;;;6.00;6.00;;;;;-128.00;-1.00;-1.00;106557;1257;1002728;-39
2023/10/19 04:26:14;;;;;;;;;6.00;6.00;;;;;-128.00;-1.00;-1.00;106615;1257;1003052;-39
2023/10/19 04:28:44;;;;;;;;;9.00;8.00;;;;;-128.00;-1.00;-1.00;106609;1257;1006787;-41
2023/10/19 04:31:13;;;;;;;;;6.00;5.33;;;;;-128.00;-1.00;-1.00;106614;1257;1006160;-40
2023/10/19 04:33:42;;;;;;;;;9.00;8.00;;;;;-128.00;-1.00;-1.00;106619;1257;1006062;-39
2023/10/19 04:36:11;;;;;;;;;9.00;9.00;;;;;-128.00;-1.00;-1.00;106679;1251;1007068;-39
2023/10/19 04:38:38;;;;;;;;;9.00;8.67;;;;;-128.00;-1.00;-1.00;106633;1257;1006246;-39
2023/10/19 04:41:08;;;;;;;;;8.00;8.00;;;;;-128.00;-1.00;-1.00;106534;1257;1002980;-39
2023/10/19 04:43:36;;;;;;;;;6.00;6.00;;;;;-128.00;-1.00;-1.00;106613;1257;1007674;-39
2023/10/19 04:46:07;;;;;;;;;9.00;9.00;;;;;-128.00;-1.00;-1.00;106643;1250;1006177;-39
2023/10/19 04:48:35;;;;;;;;;9.67;7.33;;;;;-128.00;-1.00;-1.00;106649;1251;1006238;-38
2023/10/19 04:51:04;;;;;;;;;9.00;8.00;;;;;-128.00;-1.00;-1.00;106649;1257;1007511;-39
2023/10/19 04:53:31;;;;;;;;;8.00;8.00;;;;;-128.00;-1.00;-1.00;106647;1257;1005856;-40
2023/10/19 04:56:00;;;;;;;;;11.00;10.00;;;;;-128.00;-1.00;-1.00;106616;1257;1004881;-39
2023/10/19 04:58:28;;;;;;;;;8.00;6.00;;;;;-128.00;-1.00;-1.00;106644;1257;1007163;-39
2023/10/19 05:00:55;;;;;;;;;8.50;8.00;;;;;-128.00;-1.00;-1.00;106631;1257;1006195;-39
2023/10/19 05:03:23;;;;;;;;;9.00;8.50;;;;;-128.00;-1.00;-1.00;106652;1257;1002684;-39
2023/10/19 05:05:51;;;;;;;;;8.00;8.00;;;;;-128.00;-1.00;-1.00;106641;1257;1007073;-39
2023/10/19 05:08:18;;;;;;;;;7.00;6.00;;;;;-128.00;-1.00;-1.00;106620;1257;1002363;-39
2023/10/19 05:10:45;;;;;;;;;12.00;9.00;;;;;-128.00;-1.00;-1.00;106634;1249;1002545;-39
2023/10/19 05:13:13;;;;;;;;;10.00;9.00;;;;;-128.00;-1.00;-1.00;106615;1257;1002129;-38
2023/10/19 05:15:42;;;;;;;;;12.00;10.00;;;;;-128.00;-1.00;-1.00;106632;1257;1002496;-39
2023/10/19 05:18:10;;;;;;;;;9.75;9.25;;;;;-128.00;-1.00;-1.00;106638;1257;1005952;-40
2023/10/19 05:20:40;;;;;;;;;8.00;6.00;;;;;-128.00;-1.00;-1.00;106645;1257;1002724;-40
2023/10/19 05:23:08;;;;;;;;;9.50;9.00;;;;;-128.00;-1.00;-1.00;106609;1257;1006756;-38
2023/10/19 05:25:36;;;;;;;;;10.00;10.00;;;;;-128.00;-1.00;-1.00;106628;1257;1002700;-40
2023/10/19 05:28:03;;;;;;;;;12.75;10.25;;;;;-128.00;-1.00;-1.00;106637;1265;1006990;-40
2023/10/19 05:30:31;;;;;;;;;10.00;9.00;;;;;-128.00;-1.00;-1.00;106600;1257;1002734;-40
2023/10/19 05:32:59;;;;;;;;;9.67;9.33;;;;;-128.00;-1.00;-1.00;106608;1257;1002650;-41
2023/10/19 05:35:26;;;;;;;;;8.25;8.25;;;;;-128.00;-1.00;-1.00;106620;1257;1002989;-41
2023/10/19 05:37:55;;;;;;;;;10.67;10.00;;;;;-128.00;-1.00;-1.00;106681;1249;1003139;-39
2023/10/19 05:40:23;;;;;;;;;9.00;9.00;;;;;-128.00;-1.00;-1.00;106681;1250;1007045;-39
2023/10/19 05:42:50;;;;;;;;;10.00;9.00;;;;;-128.00;-1.00;-1.00;106725;1257;1006792;-40
2023/10/19 05:45:18;;;;;;;;;9.00;8.00;;;;;-128.00;-1.00;-1.00;106648;1257;1002489;-40
2023/10/19 05:47:45;;;;;;;;;11.50;10.00;;;;;-128.00;-1.00;-1.00;106633;1265;1002785;-40
2023/10/19 05:50:14;;;;;;;;;12.50;11.50;;;;;-128.00;-1.00;-1.00;106627;1250;1002541;-39
2023/10/19 05:52:42;;;;;;;;;9.00;9.00;;;;;-128.00;-1.00;-1.00;106635;1251;1005795;-40
2023/10/19 05:55:10;;;;;;;;;12.00;10.00;;;;;-128.00;-1.00;-1.00;106593;1257;1006611;-41
2023/10/19 05:57:40;;;;;;;;;10.00;8.67;;;;;-128.00;-1.00;-1.00;106586;1257;1002627;-40
2023/10/19 06:00:07;;;;;;;;;10.00;9.00;;;;;-128.00;-1.00;-1.00;106584;1250;1006389;-40
2023/10/19 06:02:35;;;;;;;;;9.00;9.00;;;;;-128.00;-1.00;-1.00;106606;1257;1003261;-41
2023/10/19 06:05:04;;;;;;;;;12.00;9.00;;;;;-128.00;-1.00;-1.00;106669;1251;1004674;-38
2023/10/19 06:07:32;;;;;;;;;11.67;9.67;;;;;-128.00;-1.00;-1.00;106702;1257;1005920;-38
2023/10/19 06:10:03;;;;;;;;;9.00;9.00;;;;;-128.00;-1.00;-1.00;106683;1250;1002739;-39
2023/10/19 06:12:31;;;;;;;;;6.00;6.00;;;;;-128.00;-1.00;-1.00;106605;1265;1010949;-39
2023/10/19 06:14:58;;;;;;;;;10.00;9.50;;;;;-128.00;-1.00;-1.00;106665;1258;1003053;-40
2023/10/19 06:17:26;;;;;;;;;9.50;8.50;;;;;-128.00;-1.00;-1.00;106581;1257;1002870;-38
2023/10/19 06:19:54;;;;;;;;;8.75;8.00;;;;;-128.00;-1.00;-1.00;106609;1256;1002689;-40
2023/10/19 06:22:21;;;;;;;;;10.00;9.00;;;;;-128.00;-1.00;-1.00;106644;1257;1002675;-40
2023/10/19 06:24:48;;;;;;;;;10.00;9.00;;;;;-128.00;-1.00;-1.00;106640;1265;1004935;-41
2023/10/19 06:27:16;;;;;;;;;7.33;6.67;;;;;-128.00;-1.00;-1.00;106709;1257;1001999;-40
2023/10/19 06:29:44;;;;;;;;;9.00;9.00;;;;;-128.00;-1.00;-1.00;106678;1257;1002554;-40
2023/10/19 06:32:12;;;;;;;;;9.00;7.00;;;;;-128.00;-1.00;-1.00;106694;1249;1006431;-39
2023/10/19 06:34:41;;;;;;;;;9.00;9.00;;;;;-128.00;-1.00;-1.00;106683;1257;1007371;-39
2023/10/19 06:37:10;;;;;;;;;9.00;8.00;;;;;-128.00;-1.00;-1.00;106660;1257;1006354;-40
2023/10/19 06:39:40;;;;;;;;;10.75;9.25;;;;;-128.00;-1.00;-1.00;106668;1257;1006526;-41
2023/10/19 06:42:13;;;;;;;;;8.67;8.00;;;;;-128.00;-1.00;-1.00;106610;1257;1006959;-40
2023/10/19 06:44:41;;;;;;;;;6.00;6.00;;;;;-128.00;-1.00;-1.00;106652;1257;1006291;-38
2023/10/19 06:47:08;;;;;;;;;9.50;9.00;;;;;-128.00;-1.00;-1.00;106669;1257;1002318;-39
2023/10/19 06:49:36;;;;;;;;;6.00;6.00;;;;;-128.00;-1.00;-1.00;106630;1258;1002647;-41
2023/10/19 06:52:04;;;;;;;;;8.00;7.00;;;;;-128.00;-1.00;-1.00;106599;1257;1003723;-40
2023/10/19 06:54:32;;;;;;;;;6.00;6.00;;;;;-128.00;-1.00;-1.00;106677;1257;1006861;-40
2023/10/19 06:57:02;;;;;;;;;5.33;5.33;;;;;-128.00;-1.00;-1.00;106669;1257;1002870;-41
2023/10/19 06:59:33;;;;;;;;;9.50;9.50;;;;;-128.00;-1.00;-1.00;106665;1257;1007068;-42
2023/10/19 07:02:02;;;;;;;;;15.00;12.00;;;;;-128.00;-1.00;-1.00;106603;1257;1006044;-39
2023/10/19 07:04:29;;;;;;;;;9.00;8.00;;;;;-128.00;-1.00;-1.00;106623;1257;1007709;-40
2023/10/19 07:06:56;;;;;;;;;9.50;9.50;;;;;-128.00;-1.00;-1.00;106669;1257;1002779;-39
2023/10/19 07:09:24;;;;;;;;;12.00;12.00;;;;;-128.00;-1.00;-1.00;106674;1257;1002808;-39
2023/10/19 07:11:54;;;;;;;;;16.00;15.00;;;;;-128.00;-1.00;-1.00;106668;1257;1002386;-39
2023/10/19 07:14:23;;;;;;;;;12.50;12.00;;;;;-128.00;-1.00;-1.00;106588;1257;1005591;-41
2023/10/19 07:16:51;;;;;;;;;15.50;14.50;;;;;-128.00;-1.00;-1.00;106652;1265;1008142;-41
2023/10/19 07:19:19;;;;;;;;;17.33;15.67;;;;;-128.00;-1.00;-1.00;106641;1251;1007382;-42
2023/10/19 07:21:53;;;;;;;;;16.00;15.50;;;;;-128.00;-1.00;-1.00;106660;1257;1002427;-40
2023/10/19 07:24:23;;;;;;;;;16.00;15.00;;;;;-128.00;-1.00;-1.00;106399;1250;1007273;-40
2023/10/19 07:27:04;;;;;;;;;14.67;13.00;;;;;-128.00;-1.00;-1.00;106571;1257;1007612;-40
2023/10/19 07:29:31;;;;;;;;;16.00;16.00;;;;;-128.00;-1.00;-1.00;106603;1249;1005425;-40
2023/10/19 07:31:59;;;;;;;;;22.00;17.33;;;;;-128.00;-1.00;-1.00;106633;1257;1003134;-40
2023/10/19 07:34:28;;;;;;;;;16.00;15.50;;;;;-128.00;-1.00;-1.00;106683;1249;1002694;-40
2023/10/19 07:36:55;;;;;;;;;17.00;17.00;;;;;-128.00;-1.00;-1.00;106600;1257;1006191;-40
2023/10/19 07:39:23;;;;;;;;;15.50;15.50;;;;;-128.00;-1.00;-1.00;106596;1251;1002669;-39
2023/10/19 07:41:50;;;;;;;;;21.50;18.50;;;;;-128.00;-1.00;-1.00;106687;1257;1003407;-39
2023/10/19 07:44:18;;;;;;;;;17.00;16.00;;;;;-128.00;-1.00;-1.00;106702;1257;1002777;-38
2023/10/19 07:46:45;;;;;;;;;15.00;12.33;;;;;-128.00;-1.00;-1.00;106628;1257;1001976;-39
2023/10/19 07:49:14;;;;;;;;;16.50;13.00;;;;;-128.00;-1.00;-1.00;106618;1265;1003091;-41
2023/10/19 07:51:41;;;;;;;;;16.67;15.67;;;;;-128.00;-1.00;-1.00;106594;1257;1006847;-38
2023/10/19 07:54:09;;;;;;;;;16.50;13.00;;;;;-128.00;-1.00;-1.00;106599;1258;1003103;-39
2023/10/19 07:56:37;;;;;;;;;17.50;14.50;;;;;-128.00;-1.00;-1.00;106626;1257;1003669;-38
2023/10/19 07:59:04;;;;;;;;;13.50;13.00;;;;;-128.00;-1.00;-1.00;106602;1257;1002933;-39
2023/10/19 08:01:31;;;;;;;;;10.00;10.00;;;;;-128.00;-1.00;-1.00;106635;1256;1002526;-41
2023/10/19 08:03:59;;;;;;;;;16.00;13.00;;;;;-128.00;-1.00;-1.00;106627;1257;1002403;-40
2023/10/19 08:06:27;;;;;;;;;13.00;12.00;;;;;-128.00;-1.00;-1.00;106598;1257;1002928;-39
2023/10/19 08:08:55;;;;;;;;;12.00;12.00;;;;;-128.00;-1.00;-1.00;106610;1257;1007094;-39
2023/10/19 08:11:22;;;;;;;;;12.33;11.67;;;;;-128.00;-1.00;-1.00;106646;1257;1003837;-40
2023/10/19 08:13:50;;;;;;;;;11.00;11.00;;;;;-128.00;-1.00;-1.00;106549;1264;1003033;-39
2023/10/19 08:16:17;;;;;;;;;12.00;10.00;;;;;-128.00;-1.00;-1.00;106638;1257;1003118;-41
2023/10/19 08:18:44;;;;;;;;;10.00;10.00;;;;;-128.00;-1.00;-1.00;106625;1250;1002223;-39
2023/10/19 08:21:12;;;;;;;;;9.75;9.75;;;;;-128.00;-1.00;-1.00;106603;1258;1002411;-39
2023/10/19 08:23:40;;;;;;;;;11.00;10.50;;;;;-128.00;-1.00;-1.00;106631;1251;1002548;-39
2023/10/19 08:26:08;;;;;;;;;12.00;11.00;;;;;-128.00;-1.00;-1.00;106623;1257;1002649;-40
2023/10/19 08:28:36;;;;;;;;;12.50;9.00;;;;;-128.00;-1.00;-1.00;106671;1257;1006475;-39
2023/10/19 08:31:05;;;;;;;;;9.50;8.50;;;;;-128.00;-1.00;-1.00;106647;1258;1006684;-39
2023/10/19 08:33:33;;;;;;;;;6.00;6.00;;;;;-128.00;-1.00;-1.00;106645;1257;1007306;-39
2023/10/19 08:36:01;;;;;;;;;7.50;7.00;;;;;-128.00;-1.00;-1.00;106676;1257;1005830;-39
2023/10/19 08:38:28;;;;;;;;;9.00;8.00;;;;;-128.00;-1.00;-1.00;106580;1264;1003126;-40
2023/10/19 08:40:55;;;;;;;;;8.00;8.00;;;;;-128.00;-1.00;-1.00;106570;1250;1002749;-41
2023/10/19 08:43:24;;;;;;;;;9.00;9.00;;;;;-128.00;-1.00;-1.00;106672;1257;1002558;-39
2023/10/19 08:45:51;;;;;;;;;8.00;8.00;;;;;-128.00;-1.00;-1.00;106599;1257;1006408;-39
2023/10/19 08:48:19;;;;;;;;;7.00;7.00;;;;;-128.00;-1.00;-1.00;106638;1257;1003074;-40
2023/10/19 08:50:47;;;;;;;;;9.00;8.00;;;;;-128.00;-1.00;-1.00;106614;1257;1003079;-38
2023/10/19 08:53:15;;;;;;;;;6.00;6.00;;;;;-128.00;-1.00;-1.00;106629;1257;1007078;-39
2023/10/19 08:55:43;;;;;;;;;8.00;8.00;;;;;-128.00;-1.00;-1.00;106407;1257;1002420;-40
2023/10/19 08:58:10;;;;;;;;;9.00;8.50;;;;;-128.00;-1.00;-1.00;106555;1257;1002668;-39
2023/10/19 09:00:38;;;;;;;;;9.00;8.00;;;;;-128.00;-1.00;-1.00;106615;1257;1002310;-40
2023/10/19 09:03:05;;;;;;;;;6.00;6.00;;;;;-128.00;-1.00;-1.00;106653;1251;1003225;-39
2023/10/19 09:05:36;;;;;;;;;8.00;8.00;;;;;-128.00;-1.00;-1.00;106669;1257;1006271;-39
2023/10/19 09:08:06;;;;;;;;;8.00;6.00;;;;;-128.00;-1.00;-1.00;106530;1257;1003288;-38
2023/10/19 09:10:36;;;;;;;;;9.00;8.00;;;;;-128.00;-1.00;-1.00;106428;1257;1007857;-38
2023/10/19 09:13:04;;;;;;;;;9.50;9.00;;;;;-128.00;-1.00;-1.00;106598;1257;1006349;-38
2023/10/19 09:15:32;;;;;;;;;8.50;7.00;;;;;-128.00;-1.00;-1.00;106564;1251;1006316;-40
2023/10/19 09:18:00;;;;;;;;;8.67;8.00;;;;;-128.00;-1.00;-1.00;106558;1265;1006898;-39
2023/10/19 09:20:28;;;;;;;;;9.00;9.00;;;;;-128.00;-1.00;-1.00;106579;1257;1002713;-38
2023/10/19 09:22:57;;;;;;;;;8.00;8.00;;;;;-128.00;-1.00;-1.00;106563;1257;1007208;-40
2023/10/19 09:25:25;;;;;;;;;8.00;6.00;;;;;-128.00;-1.00;-1.00;106551;1257;1007714;-39
2023/10/19 09:27:52;;;;;;;;;8.50;8.50;;;;;-128.00;-1.00;-1.00;106602;1257;1003100;-40
2023/10/19 09:30:20;;;;;;;;;5.50;5.50;;;;;-128.00;-1.00;-1.00;106584;1257;1002629;-39
2023/10/19 09:32:47;;;;;;;;;8.00;6.00;;;;;-128.00;-1.00;-1.00;106613;1257;1002848;-38
2023/10/19 09:35:15;;;;;;;;;6.00;6.00;;;;;-128.00;-1.00;-1.00;106553;1257;1002524;-39
2023/10/19 09:37:43;;;;;;;;;5.50;5.50;;;;;-128.00;-1.00;-1.00;106527;1251;1005766;-39
2023/10/19 09:40:12;;;;;;;;;5.00;5.00;;;;;-128.00;-1.00;-1.00;106573;1257;1004703;-39
2023/10/19 09:42:45;;;;;;;;;6.00;5.50;;;;;-128.00;-1.00;-1.00;106623;1251;1006090;-39
2023/10/19 09:45:13;;;;;;;;;6.67;6.67;;;;;-128.00;-1.00;-1.00;106609;1264;1006095;-39
2023/10/19 09:47:40;;;;;;;;;8.50;6.00;;;;;-128.00;-1.00;-1.00;106595;1256;1003313;-39
2023/10/19 09:50:08;;;;;;;;;6.50;6.00;;;;;-128.00;-1.00;-1.00;106528;1256;1002672;-39
2023/10/19 09:52:37;;;;;;;;;5.00;5.00;;;;;-128.00;-1.00;-1.00;106531;1257;1002612;-38
2023/10/19 09:55:05;;;;;;;;;8.00;5.67;;;;;-128.00;-1.00;-1.00;106507;1257;1006447;-39
2023/10/19 09:57:32;;;;;;;;;6.00;5.00;;;;;-128.00;-1.00;-1.00;106319;1257;1002664;-39
2023/10/19 09:59:59;;;;;;;;;5.50;5.00;;;;;-128.00;-1.00;-1.00;106417;1259;1002733;-39
2023/10/19 10:02:27;;;;;;;;;6.00;6.00;;;;;-128.00;-1.00;-1.00;106439;1260;1002875;-39
2023/10/19 10:04:56;;;;;;;;;7.00;5.50;;;;;-128.00;-1.00;-1.00;106480;1266;1002425;-39
2023/10/19 10:07:25;;;;;;;;;6.00;6.00;;;;;-128.00;-1.00;-1.00;106386;1259;1005648;-39
2023/10/19 10:09:53;;;;;;;;;6.00;5.00;;;;;-128.00;-1.00;-1.00;106429;1259;1007667;-39
2023/10/19 10:12:21;;;;;;;;;6.00;6.00;;;;;-128.00;-1.00;-1.00;106447;1260;1006203;-39
2023/10/19 10:14:48;;;;;;;;;9.00;8.00;;;;;-128.00;-1.00;-1.00;106461;1259;1002264;-39
2023/10/19 10:17:15;;;;;;;;;6.67;6.67;;;;;-128.00;-1.00;-1.00;106440;1250;1002765;-39
2023/10/19 10:19:43;;;;;;;;;6.00;5.00;;;;;-128.00;-1.00;-1.00;106461;1259;1002433;-39
2023/10/19 10:22:14;;;;;;;;;5.00;5.00;;;;;-128.00;-1.00;-1.00;106457;1259;1003398;-38
2023/10/19 10:24:41;;;;;;;;;9.00;8.00;;;;;-128.00;-1.00;-1.00;106413;1260;1006753;-38
2023/10/19 10:27:09;;;;;;;;;10.00;10.00;;;;;-128.00;-1.00;-1.00;106411;1259;1002719;-39
2023/10/19 10:29:37;;;;;;;;;8.50;8.50;;;;;-128.00;-1.00;-1.00;106479;1260;1006608;-39
2023/10/19 10:32:08;;;;;;;;;8.00;8.00;;;;;-128.00;-1.00;-1.00;106451;1259;1007736;-39
2023/10/19 10:34:35;;;;;;;;;8.00;7.33;;;;;-128.00;-1.00;-1.00;106458;1259;1006679;-40
2023/10/19 10:37:03;;;;;;;;;9.00;8.50;;;;;-128.00;-1.00;-1.00;106452;1258;1002838;-39
2023/10/19 10:39:31;;;;;;;;;8.00;8.00;;;;;-128.00;-1.00;-1.00;106452;1258;1002868;-39
2023/10/19 10:41:59;;;;;;;;;6.00;6.00;;;;;-128.00;-1.00;-1.00;106490;1260;1006068;-42
2023/10/19 10:44:26;;;;;;;;;7.00;7.00;;;;;-128.00;-1.00;-1.00;106454;1259;1002807;-38
2023/10/19 10:46:53;;;;;;;;;5.00;5.00;;;;;-128.00;-1.00;-1.00;106442;1260;1002718;-39
2023/10/19 10:49:21;;;;;;;;;8.50;8.00;;;;;-128.00;-1.00;-1.00;106450;1260;1002912;-40
2023/10/19 10:51:48;;;;;;;;;5.50;5.00;;;;;-128.00;-1.00;-1.00;106422;1259;1002703;-40
2023/10/19 10:54:16;;;;;;;;;7.00;6.00;;;;;-128.00;-1.00;-1.00;106472;1260;1002474;-39
2023/10/19 10:56:43;;;;;;;;;6.00;5.00;;;;;-128.00;-1.00;-1.00;106601;1257;1002975;-39
2023/10/19 10:59:11;;;;;;;;;6.00;6.00;;;;;-128.00;-1.00;-1.00;106587;1257;1002642;-39
2023/10/19 11:01:38;;;;;;;;;9.00;6.00;;;;;-128.00;-1.00;-1.00;106614;1257;1002621;-39
2023/10/19 11:04:05;;;;;;;;;5.50;5.50;;;;;-128.00;-1.00;-1.00;106637;1257;1002596;-40
2023/10/19 11:06:33;;;;;;;;;4.50;4.50;;;;;-128.00;-1.00;-1.00;106654;1257;1002777;-39
2023/10/19 11:09:00;;;;;;;;;6.00;6.00;;;;;-128.00;-1.00;-1.00;106633;1257;1002697;-40
2023/10/19 11:11:27;;;;;;;;;6.50;5.00;;;;;-128.00;-1.00;-1.00;106600;1250;1004543;-41
2023/10/19 11:13:56;;;;;;;;;8.50;7.00;;;;;-128.00;-1.00;-1.00;106589;1257;1003601;-39
2023/10/19 11:16:23;;;;;;;;;9.00;8.00;;;;;-128.00;-1.00;-1.00;106607;1257;1006887;-39
2023/10/19 11:18:51;;;;;;;;;5.50;5.50;;;;;-128.00;-1.00;-1.00;106675;1257;1002409;-38
2023/10/19 11:21:18;;;;;;;;;7.33;6.67;;;;;-128.00;-1.00;-1.00;106620;1251;1003213;-38